Time;durP1;ratioP1;P1;durP2;ratioP2;P2;SDS_P1;SDS_P2;PMS_P1;PMS_P2;Temp;Humidity;BMP_temperature;BMP_pressure;BME280_temperature;BME280_humidity;BME280_pressure;Samples;Min_cycle;Max_cycle;Signal;HPM_P1;HPM_P2
2022/06/01 09:14:54;;;;;;;0.80;0.70;;;;;;;25.25;100.00;99768.52;1763862;79;23065;-57
2022/06/01 09:17:21;;;;;;;1.57;0.70;;;;;;;25.03;100.00;99776.86;1735600;80;21113;-57
2022/06/01 09:28:39;;;;;;;0.94;0.70;;;;;;;24.93;100.00;99774.73;1619195;81;985075;-58
2022/06/01 09:31:36;;;;;;;1.10;0.80;;;;;;;24.93;100.00;99774.73;1504802;80;985058;-57
2022/06/01 09:34:35;;;;;;;1.90;0.80;;;;;;;24.93;100.00;99774.73;1732704;81;21061;-58
2022/06/01 09:37:15;;;;;;;1.35;1.00;;;;;;;24.43;100.00;99757.58;1735100;80;20981;-59
2022/06/01 09:39:53;;;;;;;2.58;0.90;;;;;;;24.35;100.00;99764.91;1733794;80;21021;-60
2022/06/01 09:42:30;;;;;;;1.80;0.80;;;;;;;24.20;100.00;99754.98;1736116;80;21116;-57
2022/06/01 09:44:58;;;;;;;2.35;1.00;;;;;;;24.01;100.00;99753.28;1738237;81;21413;-56
2022/06/01 09:47:40;;;;;;;0.80;0.80;;;;;;;23.90;100.00;99754.94;1737459;80;21381;-57
2022/06/01 09:50:28;;;;;;;2.17;0.90;;;;;;;23.84;100.00;99747.30;1736989;80;20985;-57
2022/06/01 09:53:19;;;;;;;1.98;0.85;;;;;;;23.79;100.00;99749.67;1739230;81;21414;-57
2022/06/01 09:55:59;;;;;;;2.90;0.80;;;;;;;23.76;100.00;99742.59;1737434;81;21220;-58
2022/06/01 10:07:29;;;;;;;2.40;0.68;;;;;;;24.05;100.00;99740.96;1720061;80;20974;-57
2022/06/01 10:10:00;;;;;;;2.52;0.70;;;;;;;24.11;100.00;99733.44;1726713;80;21111;-57
2022/06/01 10:12:49;;;;;;;3.80;0.80;;;;;;;24.18;100.00;99741.90;1729491;80;20907;-57
2022/06/01 10:15:30;;;;;;;3.05;0.70;;;;;;;24.27;100.00;99746.98;1685079;81;20911;-58
2022/06/01 10:18:12;;;;;;;1.70;0.70;;;;;;;24.30;100.00;99743.41;1721692;81;20939;-58
2022/06/01 10:20:46;;;;;;;1.72;0.80;;;;;;;24.32;100.00;99739.98;1715814;81;20954;-57
2022/06/01 10:23:36;;;;;;;0.82;0.70;;;;;;;24.38;100.00;99732.45;1713397;81;21489;-57
2022/06/01 10:26:16;;;;;;;1.77;0.85;;;;;;;24.46;100.00;99732.50;1721187;81;21426;-57
2022/06/01 10:28:47;;;;;;;6.55;0.82;;;;;;;24.56;100.00;99734.27;1714588;81;20956;-60
2022/06/01 10:31:25;;;;;;;2.02;0.90;;;;;;;24.64;100.00;99736.56;1697565;81;20903;-57
2022/06/01 10:33:58;;;;;;;1.50;0.82;;;;;;;24.68;100.00;99732.44;1680017;81;21069;-57
2022/06/01 10:36:53;;;;;;;1.02;0.70;;;;;;;24.67;100.00;99730.70;1722920;81;22040;-59
2022/06/01 10:39:43;;;;;;;3.47;0.82;;;;;;;24.66;100.00;99724.88;1647731;82;21573;-59
2022/06/01 10:45:24;;;;;;;0.90;0.70;;;;;;;24.72;100.00;99722.84;1641072;82;21117;-58
2022/06/01 10:48:13;;;;;;;2.33;0.68;;;;;;;24.80;100.00;99722.88;1717777;81;21069;-60
2022/06/01 10:51:03;;;;;;;3.27;0.60;;;;;;;24.89;100.00;99713.63;1714014;81;21714;-58
2022/06/01 10:53:44;;;;;;;1.42;0.62;;;;;;;24.99;100.00;99709.39;1715119;81;21142;-58
2022/06/01 10:56:10;;;;;;;0.70;0.70;;;;;;;25.10;100.00;99706.82;1700918;81;21310;-58
2022/06/01 10:58:37;;;;;;;0.72;0.55;;;;;;;25.19;100.00;99705.30;1693749;81;21066;-58
2022/06/01 11:01:15;;;;;;;3.83;1.00;;;;;;;25.28;100.00;99704.80;1713080;81;21676;-58
2022/06/01 11:03:52;;;;;;;2.60;0.65;;;;;;;25.37;100.00;99704.30;1714949;81;21532;-57
2022/06/01 11:06:46;;;;;;;1.12;1.02;;;;;;;25.46;100.00;99701.40;1715695;81;21106;-56
2022/06/01 11:09:38;;;;;;;1.30;0.70;;;;;;;25.51;100.00;99699.02;1712485;81;21588;-57
2022/06/01 11:12:35;;;;;;;1.85;0.70;;;;;;;25.50;100.00;99701.93;1715013;81;21129;-57
2022/06/01 11:15:30;;;;;;;4.80;0.70;;;;;;;25.46;100.00;99696.40;1713964;81;21006;-57
2022/06/01 11:18:08;;;;;;;2.55;0.72;;;;;;;25.45;100.00;99694.67;1718704;81;21463;-58
2022/06/01 11:20:58;;;;;;;1.77;0.60;;;;;;;25.47;100.00;99691.23;1714164;81;21097;-56
2022/06/01 11:23:50;;;;;;;0.70;0.60;;;;;;;25.47;100.00;99690.72;1718469;81;21563;-58
2022/06/01 11:26:54;;;;;;;3.12;0.60;;;;;;;25.49;100.00;99686.42;1715644;81;21081;-58
2022/06/01 11:29:41;;;;;;;1.80;0.70;;;;;;;25.49;100.00;99684.53;1710921;81;21034;-57
2022/06/01 11:32:18;;;;;;;4.47;0.70;;;;;;;25.45;100.00;99689.16;1697162;81;892543;-58
2022/06/01 11:35:08;;;;;;;4.20;0.60;;;;;;;25.38;100.00;99690.36;1715013;81;20931;-58
2022/06/01 11:37:40;;;;;;;0.93;0.60;;;;;;;25.31;100.00;99689.84;1716202;81;20976;-57
2022/06/01 11:40:17;;;;;;;1.80;0.70;;;;;;;25.23;100.00;99687.42;1713863;81;21041;-57
2022/06/01 11:42:48;;;;;;;4.00;0.60;;;;;;;25.16;100.00;99686.89;1714158;81;20994;-57
2022/06/01 11:45:21;;;;;;;1.45;0.60;;;;;;;25.09;100.00;99688.60;1716191;81;21748;-57
2022/06/01 11:48:10;;;;;;;3.80;0.68;;;;;;;25.02;100.00;99691.14;1721392;81;21033;-57
2022/06/01 11:50:48;;;;;;;1.85;0.60;;;;;;;24.96;100.00;99690.44;1713442;81;21050;-58
2022/06/01 11:53:29;;;;;;;1.27;0.70;;;;;;;24.86;100.00;99682.28;1712257;81;21697;-57
2022/06/01 11:56:30;;;;;;;0.53;0.53;;;;;;;24.75;100.00;99681.20;1718214;81;21085;-57
2022/06/01 11:59:08;;;;;;;2.70;0.60;;;;;;;24.69;100.00;99677.74;1714390;81;21407;-55
2022/06/01 12:01:59;;;;;;;1.47;0.50;;;;;;;24.71;100.00;99676.20;1712496;81;21046;-57
2022/06/01 12:04:40;;;;;;;0.70;0.50;;;;;;;24.77;100.00;99671.41;1718950;81;21109;-57
2022/06/01 12:07:16;;;;;;;1.00;0.53;;;;;;;24.86;100.00;99667.14;1720352;81;21019;-58
2022/06/01 12:10:07;;;;;;;1.92;0.60;;;;;;;24.97;100.00;99670.14;1710214;81;20978;-57
2022/06/01 12:12:43;;;;;;;3.27;0.70;;;;;;;25.07;100.00;99663.11;1717893;81;21155;-57
2022/06/01 12:15:32;;;;;;;1.30;0.60;;;;;;;25.18;100.00;99663.63;1708318;81;21069;-56
2022/06/01 12:18:15;;;;;;;0.93;0.70;;;;;;;25.27;100.00;99660.38;1692032;81;21110;-56
2022/06/01 12:20:50;;;;;;;0.85;0.60;;;;;;;25.34;100.00;99658.69;1700762;81;21050;-56
2022/06/01 12:29:07;;;;;;;0.90;0.60;;;;;;;25.52;100.00;99658.54;1705453;81;21044;-55
2022/06/01 12:31:38;;;;;;;2.52;0.50;;;;;;;25.57;100.00;99651.47;1694717;81;22111;-56
2022/06/01 12:34:27;;;;;;;0.60;0.60;;;;;;;25.63;100.00;99648.56;1703022;81;21109;-57
2022/06/01 12:37:08;;;;;;;2.17;0.50;;;;;;;25.66;100.00;99644.09;1705828;81;21161;-55
2022/06/01 12:39:39;;;;;;;0.90;0.60;;;;;;;25.69;100.00;99650.61;1707305;81;21211;-57
2022/06/01 12:42:11;;;;;;;2.17;0.50;;;;;;;25.73;100.00;99651.14;1708143;81;20955;-56
2022/06/01 12:44:38;;;;;;;0.68;0.50;;;;;;;25.76;100.00;99650.81;1702290;81;21454;-56
2022/06/01 12:47:05;;;;;;;1.00;0.55;;;;;;;25.79;100.00;99650.44;1704297;81;21426;-56
2022/06/01 12:49:37;;;;;;;1.12;0.50;;;;;;;25.80;100.00;99652.17;1694463;81;21516;-56
2022/06/01 12:52:10;;;;;;;0.60;0.50;;;;;;;25.83;100.00;99653.20;1708609;81;21086;-57
2022/06/01 12:54:39;;;;;;;0.90;0.70;;;;;;;25.85;100.00;99651.15;1705105;81;21460;-58
2022/06/01 12:57:11;;;;;;;3.30;0.60;;;;;;;25.86;100.00;99648.19;1706408;81;20903;-57
2022/06/01 12:59:39;;;;;;;1.42;0.60;;;;;;;25.84;100.00;99645.28;1706422;81;21557;-56
2022/06/01 13:02:11;;;;;;;0.88;0.50;;;;;;;25.82;100.00;99644.08;1705359;81;20967;-56
2022/06/01 13:04:38;;;;;;;2.47;0.60;;;;;;;25.85;100.00;99647.02;1709091;81;21087;-57
2022/06/01 13:07:07;;;;;;;2.45;0.50;;;;;;;25.90;100.00;99632.17;1708963;81;21351;-57
2022/06/01 13:09:35;;;;;;;0.62;0.45;;;;;;;25.92;100.00;99628.21;1691491;81;892353;-56
2022/06/01 13:12:07;;;;;;;0.68;0.50;;;;;;;25.94;100.00;99628.91;1689748;81;892288;-56
2022/06/01 13:14:35;;;;;;;0.83;0.50;;;;;;;25.99;100.00;99626.98;1660550;81;974854;-57
2022/06/01 13:17:14;;;;;;;1.87;0.90;;;;;;;26.05;100.00;99628.17;1726628;81;21305;-57
2022/06/01 13:19:41;;;;;;;1.27;0.50;;;;;;;26.07;100.00;99626.97;1715313;81;21035;-57
2022/06/01 13:22:19;;;;;;;0.80;0.50;;;;;;;26.11;100.00;99624.22;1721049;81;21068;-56
2022/06/01 13:24:53;;;;;;;4.67;0.60;;;;;;;26.14;100.00;99623.84;1686574;81;941405;-56
2022/06/01 13:27:20;;;;;;;1.27;0.55;;;;;;;26.21;100.00;99618.47;1708887;81;20962;-56
2022/06/01 13:29:52;;;;;;;0.65;0.50;;;;;;;26.24;100.00;99621.75;1722239;81;21065;-55
2022/06/01 13:32:19;;;;;;;0.60;0.50;;;;;;;26.27;100.00;99615.06;1717649;81;21586;-58
2022/06/01 13:34:49;;;;;;;1.98;0.50;;;;;;;26.29;100.00;99619.34;1714279;81;21034;-57
2022/06/01 13:37:25;;;;;;;0.82;0.50;;;;;;;26.34;100.00;99621.58;1716987;81;21408;-57
2022/06/01 13:40:01;;;;;;;3.80;0.50;;;;;;;26.39;100.00;99616.38;1719446;81;21128;-56
2022/06/01 13:42:41;;;;;;;3.95;0.75;;;;;;;26.37;100.00;99610.17;1718537;81;21124;-55
2022/06/01 13:45:24;;;;;;;1.32;0.60;;;;;;;26.35;100.00;99608.13;1712854;81;21160;-56
2022/06/01 13:47:54;;;;;;;0.80;0.50;;;;;;;26.35;100.00;99606.23;1708876;81;769941;-58
2022/06/01 13:50:27;;;;;;;1.00;0.60;;;;;;;26.33;100.00;99602.78;1665023;81;906789;-57
2022/06/01 13:53:02;;;;;;;1.00;0.50;;;;;;;26.32;100.00;99612.09;1720118;81;21096;-58
2022/06/01 13:55:31;;;;;;;0.72;0.50;;;;;;;26.31;100.00;99614.51;1706147;81;564756;-58
2022/06/01 13:58:12;;;;;;;0.78;0.60;;;;;;;26.31;100.00;99606.75;1653656;81;984759;-57
2022/06/01 14:00:45;;;;;;;0.78;0.50;;;;;;;26.36;100.00;99601.06;1713553;81;21082;-56
2022/06/01 14:03:22;;;;;;;4.20;0.53;;;;;;;26.32;100.00;99601.58;1726550;81;21085;-56
2022/06/01 14:06:05;;;;;;;0.60;0.60;;;;;;;26.32;100.00;99598.30;1669701;82;906384;-57
2022/06/01 14:08:58;;;;;;;3.15;0.60;;;;;;;26.32;100.00;99598.30;1539886;81;975305;-56
2022/06/01 14:13:27;;;;;;;1.17;0.80;;;;;;;26.32;100.00;99598.30;1591535;81;984527;-56
2022/06/01 14:16:30;;;;;;;2.22;0.72;;;;;;;26.32;100.00;99598.30;1656434;81;985195;-56
2022/06/01 14:19:50;;;;;;;1.17;0.95;;;;;;;26.32;100.00;99598.30;1552225;81;984900;-56
2022/06/01 14:22:16;;;;;;;1.23;0.50;;;;;;;26.32;100.00;99598.30;1631627;81;984522;-56
2022/06/01 14:30:15;;;;;;;0.88;0.53;;;;;;;26.37;100.00;99575.16;1723313;81;21042;-57
2022/06/01 14:32:46;;;;;;;0.50;0.50;;;;;;;26.35;100.00;99573.64;1663543;81;984734;-56
2022/06/01 14:35:15;;;;;;;0.55;0.55;;;;;;;26.35;100.00;99573.64;1713140;81;21050;-56
2022/06/01 14:37:43;;;;;;;3.47;0.40;;;;;;;26.34;100.00;99574.67;1716206;81;21432;-56
2022/06/01 14:40:10;;;;;;;0.50;0.35;;;;;;;26.32;100.00;99569.33;1708268;81;984789;-56
2022/06/01 14:43:04;;;;;;;1.12;0.75;;;;;;;26.32;100.00;99569.33;1695231;81;975045;-55
2022/06/01 14:45:30;;;;;;;25.65;1.35;;;;;;;26.32;100.00;99569.33;1684866;81;978226;-57
2022/06/01 14:47:57;;;;;;;0.85;0.50;;;;;;;26.32;100.00;99552.77;1688462;81;906726;-57
2022/06/01 14:50:23;;;;;;;1.40;0.47;;;;;;;26.31;100.00;99555.70;1722522;81;21633;-55
2022/06/01 14:54:44;;;;;;;8.45;0.50;;;;;;;26.30;100.00;99556.74;1529727;81;985193;-55
2022/06/01 14:57:11;;;;;;;2.20;0.40;;;;;;;26.30;100.00;99556.74;1712029;81;484552;-56
2022/06/01 14:59:40;;;;;;;0.53;0.40;;;;;;;26.30;100.00;99552.60;1717533;81;21068;-56
2022/06/01 15:02:06;;;;;;;0.62;0.50;;;;;;;26.27;100.00;99549.70;1715044;81;21057;-56
2022/06/01 15:04:37;;;;;;;0.80;0.60;;;;;;;26.27;100.00;99547.47;1687434;81;975094;-56
2022/06/01 15:07:06;;;;;;;4.50;0.60;;;;;;;26.29;100.00;99557.26;1718940;81;21073;-56
2022/06/01 15:09:32;;;;;;;1.50;0.60;;;;;;;26.27;100.00;99557.98;1722827;81;21473;-58
2022/06/01 15:12:00;;;;;;;0.50;0.50;;;;;;;26.26;100.00;99560.39;1715447;81;21073;-58
2022/06/01 15:14:28;;;;;;;1.95;0.60;;;;;;;26.25;100.00;99557.78;1714235;81;21049;-58
2022/06/01 15:16:58;;;;;;;0.90;0.60;;;;;;;26.21;100.00;99561.40;1680972;81;974753;-57
2022/06/01 15:19:33;;;;;;;1.10;0.60;;;;;;;26.16;100.00;99556.95;1682387;81;905827;-58
2022/06/01 15:21:59;;;;;;;1.55;0.55;;;;;;;26.15;100.00;99561.26;1702725;82;21508;-57
2022/06/01 15:24:26;;;;;;;1.57;0.50;;;;;;;26.12;100.00;99565.22;1674913;83;916426;-59
2022/06/01 15:26:53;;;;;;;2.02;0.60;;;;;;;26.17;100.00;99557.30;1698787;82;26519;-57
2022/06/01 15:44:05;;;;;;;1.50;0.60;;;;;;;26.05;100.00;99563.36;1591007;83;985077;-55
2022/06/01 15:46:34;;;;;;;0.80;0.60;;;;;;;26.05;100.00;99563.36;1670891;82;975482;-56
2022/06/01 15:49:10;;;;;;;2.08;0.70;;;;;;;26.08;100.00;99567.16;1656417;83;984523;-55
2022/06/01 15:52:28;;;;;;;2.33;0.60;;;;;;;26.08;100.00;99567.16;1469755;83;985148;-55
2022/06/01 15:54:55;;;;;;;2.87;0.60;;;;;;;26.08;100.00;99567.16;1696899;83;21054;-56
2022/06/01 15:57:21;;;;;;;1.12;0.70;;;;;;;26.05;100.00;99570.25;1696722;83;21060;-55
2022/06/01 15:59:48;;;;;;;1.45;0.60;;;;;;;26.03;100.00;99567.66;1707068;83;20955;-55
2022/06/01 16:02:21;;;;;;;0.60;0.60;;;;;;;26.01;100.00;99561.49;1704403;83;21795;-56
2022/06/01 16:04:48;;;;;;;2.30;0.70;;;;;;;26.00;100.00;99563.39;1702129;83;21375;-55
2022/06/01 16:07:16;;;;;;;1.22;0.65;;;;;;;26.00;100.00;99562.52;1700671;83;21430;-56
2022/06/01 16:10:48;;;;;;;1.22;0.60;;;;;;;26.00;100.00;99559.25;1649885;83;984510;-55
2022/06/01 16:13:29;;;;;;;0.80;0.70;;;;;;;26.00;100.00;99559.25;1484421;83;984964;-55
2022/06/01 16:15:56;;;;;;;1.10;0.70;;;;;;;26.00;100.00;99559.25;1577637;83;975405;-56
2022/06/01 16:18:22;;;;;;;0.72;0.55;;;;;;;26.03;100.00;99555.25;1697665;83;168380;-56
2022/06/01 16:20:50;;;;;;;2.35;0.50;;;;;;;25.99;100.00;99561.66;1661496;81;975426;-56
2022/06/01 16:23:16;;;;;;;2.65;0.50;;;;;;;26.00;100.00;99565.28;1692303;82;21120;-56
2022/06/01 16:25:43;;;;;;;1.32;0.60;;;;;;;25.96;100.00;99559.77;1698867;81;565447;-56
2022/06/01 16:28:10;;;;;;;1.20;0.70;;;;;;;25.96;100.00;99566.66;1659769;81;974752;-56
2022/06/01 16:31:40;;;;;;;5.33;0.60;;;;;;;25.94;100.00;99571.52;1657556;81;975322;-55
2022/06/01 16:38:28;;;;;;;0.64;0.60;;;;;;;25.94;100.00;99571.52;1527548;81;985167;-55
2022/06/01 16:40:57;;;;;;;0.80;0.53;;;;;;;25.94;100.00;99571.52;1707257;81;21865;-55
2022/06/01 16:43:24;;;;;;;4.42;0.70;;;;;;;25.85;100.00;99556.02;1693357;82;21113;-55
2022/06/01 16:45:50;;;;;;;2.90;0.60;;;;;;;25.79;100.00;99558.08;1689618;81;646277;-56
2022/06/01 16:48:17;;;;;;;2.25;0.70;;;;;;;25.77;100.00;99558.80;1703500;81;21006;-55
2022/06/01 16:50:44;;;;;;;2.60;0.70;;;;;;;25.74;100.00;99551.73;1572289;81;975446;-55
2022/06/01 16:53:11;;;;;;;3.35;0.70;;;;;;;25.70;100.00;99559.13;1702585;81;658936;-55
2022/06/01 16:55:39;;;;;;;3.95;0.90;;;;;;;25.62;100.00;99557.25;1705578;81;21057;-55
2022/06/01 16:58:06;;;;;;;3.20;0.85;;;;;;;25.62;100.00;99557.25;1680582;81;906205;-55
2022/06/01 17:12:42;;;;;;;2.40;0.80;;;;;;;25.52;100.00;99558.78;1650240;81;974837;-54
2022/06/01 17:19:40;;;;;;;3.12;0.72;;;;;;;25.52;100.00;99558.78;1477202;81;985079;-54
2022/06/01 17:22:07;;;;;;;3.72;1.00;;;;;;;25.52;100.00;99558.78;1710224;81;21045;-55
2022/06/01 17:24:34;;;;;;;2.10;0.90;;;;;;;24.74;100.00;99546.01;1713205;81;21143;-55
2022/06/01 17:27:02;;;;;;;3.40;0.80;;;;;;;24.60;100.00;99552.66;1722821;81;21070;-55
2022/06/01 17:29:29;;;;;;;3.98;0.80;;;;;;;24.46;100.00;99562.44;1717895;81;21141;-55
2022/06/01 17:31:56;;;;;;;1.67;0.70;;;;;;;24.46;100.00;99562.44;1712643;81;21105;-55
2022/06/01 17:34:24;;;;;;;0.90;0.75;;;;;;;24.18;100.00;99563.66;1637045;81;975272;-55
2022/06/01 17:36:52;;;;;;;1.12;0.80;;;;;;;24.18;100.00;99563.66;1491363;81;975588;-55
2022/06/01 17:40:21;;;;;;;2.84;0.98;;;;;;;24.01;100.00;99570.97;1660680;81;985156;-54
2022/06/01 17:43:07;;;;;;;1.78;0.96;;;;;;;24.01;100.00;99570.97;1482809;81;984329;-54
2022/06/01 17:45:36;;;;;;;1.10;0.80;;;;;;;24.01;100.00;99570.97;1639018;83;975089;-55
2022/06/01 17:48:11;;;;;;;1.45;1.00;;;;;;;23.46;100.00;99593.27;1684375;83;412321;-55
2022/06/01 17:50:37;;;;;;;3.83;1.32;;;;;;;23.46;100.00;99593.27;1643090;84;772484;-55
2022/06/01 17:53:05;;;;;;;3.60;1.40;;;;;;;23.17;100.00;99596.27;1664126;84;20978;-55
2022/06/01 17:55:32;;;;;;;2.65;1.10;;;;;;;23.03;100.00;99594.59;1658543;84;38838;-55
2022/06/01 17:57:59;;;;;;;2.75;1.50;;;;;;;22.89;100.00;99594.61;1682844;83;21543;-55
2022/06/01 18:00:25;;;;;;;3.80;1.40;;;;;;;22.73;100.00;99598.02;1686247;83;21100;-56
2022/06/01 18:02:51;;;;;;;3.72;1.07;;;;;;;22.60;100.00;99596.17;1655497;84;564855;-55
2022/06/01 18:05:19;;;;;;;4.72;1.20;;;;;;;22.46;100.00;99593.42;1658018;84;21156;-55
2022/06/01 18:07:45;;;;;;;1.90;1.32;;;;;;;22.31;100.00;99597.70;1653398;84;20974;-56
2022/06/01 18:13:27;;;;;;;5.47;1.10;;;;;;;22.18;100.00;99588.97;1531388;84;975511;-55
2022/06/01 18:16:33;;;;;;;1.40;1.00;;;;;;;22.18;100.00;99588.97;1506853;83;984789;-56
2022/06/01 18:19:07;;;;;;;2.40;1.22;;;;;;;22.18;100.00;99588.97;1652744;84;851439;-56
2022/06/01 18:21:35;;;;;;;3.17;2.87;;;;;;;22.18;100.00;99588.97;1606944;83;866458;-55
2022/06/01 18:24:01;;;;;;;1.42;1.10;;;;;;;21.66;100.00;99609.59;1654776;83;21348;-56
2022/06/01 18:26:29;;;;;;;2.12;1.10;;;;;;;21.56;100.00;99612.35;1646830;85;21492;-56
2022/06/01 18:28:55;;;;;;;7.30;1.80;;;;;;;21.47;100.00;99620.08;1611004;85;21114;-56
2022/06/01 18:31:29;;;;;;;5.35;1.40;;;;;;;21.40;100.00;99613.46;1663423;85;21102;-55
2022/06/01 18:34:10;;;;;;;3.92;1.84;;;;;;;21.34;100.00;99613.55;1492215;85;984860;-56
2022/06/01 18:39:04;;;;;;;1.70;1.60;;;;;;;21.34;100.00;99613.55;1434875;85;985056;-54
2022/06/01 18:41:33;;;;;;;2.72;2.00;;;;;;;21.34;100.00;99613.55;1575689;85;985205;-55
2022/06/01 18:44:00;;;;;;;6.10;4.03;;;;;;;21.34;100.00;99613.55;1665515;85;21070;-55
2022/06/01 18:46:28;;;;;;;5.17;3.37;;;;;;;21.14;100.00;99611.79;1656114;85;769704;-55
2022/06/01 18:48:55;;;;;;;4.50;3.00;;;;;;;21.07;100.00;99612.87;1647389;85;20988;-55
2022/06/01 18:51:32;;;;;;;3.98;2.35;;;;;;;21.00;100.00;99618.56;1667498;85;21747;-55
2022/06/01 18:53:59;;;;;;;5.78;4.35;;;;;;;20.93;100.00;99624.22;1658833;85;382518;-55
2022/06/01 18:56:25;;;;;;;5.67;3.95;;;;;;;20.84;100.00;99620.97;1661084;85;21031;-55
2022/06/01 18:58:53;;;;;;;4.65;1.98;;;;;;;20.79;100.00;99630.13;1657769;85;21099;-55
2022/06/01 19:01:38;;;;;;;5.40;1.70;;;;;;;20.69;100.00;99627.36;1615051;85;906087;-55
2022/06/01 19:04:08;;;;;;;1.65;1.07;;;;;;;20.62;100.00;99627.56;1657120;85;21007;-55
2022/06/01 19:06:37;;;;;;;1.98;1.30;;;;;;;20.54;100.00;99626.04;1667712;85;21548;-55
2022/06/01 19:09:04;;;;;;;1.60;1.30;;;;;;;20.48;100.00;99631.21;1658435;85;21003;-55
2022/06/01 19:12:09;;;;;;;5.63;1.20;;;;;;;20.44;100.00;99630.61;1461425;84;984981;-55
2022/06/01 19:29:36;;;;;;;2.85;1.57;;;;;;;20.44;100.00;99630.61;1445469;85;985192;-55
2022/06/01 19:32:04;;;;;;;3.80;1.22;;;;;;;20.44;100.00;99630.61;1661956;85;21142;-55
2022/06/01 19:34:31;;;;;;;3.00;1.10;;;;;;;19.96;100.00;99630.40;1665453;85;21129;-56
2022/06/01 19:45:18;;;;;;;2.10;1.10;;;;;;;19.76;100.00;99629.91;1665409;85;21047;-56
2022/06/01 19:47:44;;;;;;;4.80;1.00;;;;;;;19.71;100.00;99624.88;1656688;85;21109;-55
2022/06/01 19:50:14;;;;;;;7.25;1.02;;;;;;;19.71;100.00;99624.88;1659186;85;21707;-55
2022/06/01 19:52:41;;;;;;;2.60;0.93;;;;;;;19.72;100.00;99624.38;1657402;85;21126;-55
2022/06/01 19:55:08;;;;;;;2.10;1.00;;;;;;;19.72;100.00;99617.05;1659071;84;21038;-54
2022/06/01 19:57:35;;;;;;;1.12;0.90;;;;;;;19.72;100.00;99611.59;1658566;85;21567;-53
2022/06/01 20:01:04;;;;;;;1.40;1.20;;;;;;;19.72;100.00;99608.86;1557873;85;975371;-54
2022/06/01 20:03:31;;;;;;;1.40;0.90;;;;;;;19.72;100.00;99608.86;1616117;86;975051;-54
2022/06/01 20:05:58;;;;;;;1.75;1.00;;;;;;;19.70;100.00;99614.95;1666555;85;21009;-55
2022/06/01 20:08:25;;;;;;;1.32;1.07;;;;;;;19.65;100.00;99615.83;1668751;85;21447;-53
2022/06/01 20:10:52;;;;;;;2.67;1.00;;;;;;;19.56;100.00;99617.50;1570587;85;975091;-56
2022/06/01 20:13:32;;;;;;;1.82;0.80;;;;;;;19.51;100.00;99623.88;1497195;85;975472;-55
2022/06/01 20:15:59;;;;;;;2.27;1.00;;;;;;;19.51;100.00;99623.88;1662710;84;21849;-55
2022/06/01 20:18:30;;;;;;;1.50;0.80;;;;;;;19.35;100.00;99623.45;1656307;85;21756;-55
2022/06/01 20:20:55;;;;;;;1.98;0.82;;;;;;;19.24;100.00;99626.22;1657821;85;21808;-53
2022/06/01 20:23:22;;;;;;;5.83;1.00;;;;;;;19.19;100.00;99621.67;1643171;85;975066;-57
2022/06/01 20:25:49;;;;;;;2.25;1.00;;;;;;;19.14;100.00;99626.14;1600616;85;975114;-54
2022/06/01 20:28:17;;;;;;;3.17;1.17;;;;;;;19.17;100.00;99625.89;1608672;85;975380;-53
2022/06/01 20:30:44;;;;;;;1.82;1.00;;;;;;;19.15;100.00;99622.91;1659982;85;21436;-57
2022/06/01 20:33:10;;;;;;;4.17;1.03;;;;;;;19.13;100.00;99616.75;1638838;85;906744;-53
2022/06/01 20:35:37;;;;;;;1.00;0.90;;;;;;;19.13;100.00;99616.75;1638724;85;975383;-54
2022/06/01 20:38:04;;;;;;;4.78;0.90;;;;;;;19.17;100.00;99619.56;1659164;85;21079;-56
2022/06/01 20:40:30;;;;;;;1.60;0.70;;;;;;;19.14;100.00;99620.69;1661380;85;21098;-54
2022/06/01 20:42:57;;;;;;;1.05;0.82;;;;;;;19.12;100.00;99615.88;1657006;85;21086;-54
2022/06/01 20:45:23;;;;;;;1.82;0.72;;;;;;;19.14;100.00;99626.67;1658549;85;21579;-53
2022/06/01 20:47:50;;;;;;;5.95;0.78;;;;;;;19.12;100.00;99622.70;1660974;85;21156;-56
2022/06/01 20:50:20;;;;;;;0.80;0.80;;;;;;;19.11;100.00;99620.10;1655183;85;21138;-53
2022/06/01 20:52:47;;;;;;;2.12;1.00;;;;;;;19.12;100.00;99625.43;1662837;84;21086;-54
2022/06/01 20:55:14;;;;;;;1.60;1.00;;;;;;;19.15;100.00;99627.02;1656685;85;21572;-54
2022/06/01 20:57:42;;;;;;;2.65;0.88;;;;;;;19.11;100.00;99633.74;1660323;85;21706;-54
2022/06/01 21:00:13;;;;;;;3.77;0.90;;;;;;;19.08;100.00;99625.31;1663074;85;22762;-55
2022/06/01 21:02:40;;;;;;;1.20;0.98;;;;;;;19.02;100.00;99627.70;1655719;85;138831;-53
2022/06/01 21:05:07;;;;;;;1.52;1.00;;;;;;;18.99;100.00;99637.00;1659698;85;21117;-53
2022/06/01 21:07:37;;;;;;;1.10;1.00;;;;;;;18.92;100.00;99639.02;1657198;85;21433;-54
2022/06/01 21:10:07;;;;;;;3.87;1.20;;;;;;;18.89;100.00;99649.18;1658349;85;21360;-57
2022/06/01 21:12:33;;;;;;;4.33;0.90;;;;;;;18.84;100.00;99704.62;1658054;85;21137;-52
2022/06/01 21:15:01;;;;;;;2.45;1.15;;;;;;;18.80;100.00;99684.04;1661984;85;21062;-55
2022/06/01 21:17:29;;;;;;;2.00;0.93;;;;;;;18.84;100.00;99718.75;1659367;85;21138;-58
2022/06/01 21:22:25;;;;;;;1.20;1.00;;;;;;;18.93;100.00;99728.03;1445943;85;985122;-55
2022/06/01 21:25:35;;;;;;;1.10;0.70;;;;;;;18.93;100.00;99728.03;1478414;85;975509;-52
2022/06/01 21:28:02;;;;;;;3.57;0.60;;;;;;;18.93;100.00;99728.03;1621515;86;770425;-53
2022/06/01 21:31:53;;;;;;;1.05;0.70;;;;;;;19.37;100.00;99727.91;1789911;78;28075;-52
2022/06/01 21:34:19;;;;;;;2.65;0.60;;;;;;;19.36;100.00;99730.26;1768703;79;21492;-57
2022/06/01 21:36:46;;;;;;;1.05;0.65;;;;;;;19.41;100.00;99731.22;1716824;82;21154;-56
2022/06/01 21:39:12;;;;;;;3.60;0.70;;;;;;;19.44;100.00;99725.52;1718294;81;20969;-55
2022/06/01 21:41:40;;;;;;;2.15;0.60;;;;;;;19.47;100.00;99736.18;1728781;81;21061;-51
2022/06/01 21:44:09;;;;;;;0.98;0.40;;;;;;;19.50;100.00;99731.34;1736630;81;21485;-52
2022/06/01 21:46:37;;;;;;;0.73;0.50;;;;;;;19.51;100.00;99720.79;1714080;81;565509;-51
2022/06/01 21:49:03;;;;;;;0.85;0.50;;;;;;;19.55;100.00;99719.55;1734175;81;21342;-53
2022/06/01 21:51:30;;;;;;;0.80;0.50;;;;;;;19.57;100.00;99725.72;1737742;81;20934;-51
2022/06/01 21:53:57;;;;;;;2.17;0.60;;;;;;;19.61;100.00;99727.20;1736560;81;21429;-50
2022/06/01 21:57:13;;;;;;;1.10;0.50;;;;;;;19.66;100.00;99728.16;1713773;81;975126;-53
2022/06/01 21:59:40;;;;;;;0.80;0.50;;;;;;;19.66;100.00;99728.16;1641272;82;974826;-52
2022/06/01 22:02:09;;;;;;;0.55;0.50;;;;;;;19.75;100.00;99728.73;1699644;82;20903;-56
2022/06/01 22:04:38;;;;;;;1.75;0.50;;;;;;;19.76;100.00;99730.96;1699066;82;21376;-52
2022/06/01 22:07:05;;;;;;;1.00;0.50;;;;;;;19.77;100.00;99732.20;1694928;82;21475;-52
2022/06/01 22:14:15;;;;;;;2.80;0.50;;;;;;;19.78;100.00;99733.07;1569110;82;984651;-51
2022/06/01 22:17:27;;;;;;;0.80;0.40;;;;;;;19.78;100.00;99733.07;1522474;82;975478;-51
2022/06/01 22:19:54;;;;;;;1.22;0.50;;;;;;;19.78;100.00;99733.07;1697407;82;21722;-51
2022/06/01 22:22:20;;;;;;;4.47;0.40;;;;;;;19.67;100.00;99718.97;1697454;82;21471;-52
2022/06/01 22:24:47;;;;;;;2.37;0.50;;;;;;;19.63;100.00;99722.48;1698083;82;21078;-51
2022/06/01 22:27:15;;;;;;;4.15;0.50;;;;;;;19.61;100.00;99711.31;1698726;82;21058;-54
2022/06/01 22:30:10;;;;;;;3.40;0.50;;;;;;;19.61;100.00;99711.31;1679498;82;902265;-52
2022/06/01 22:43:30;;;;;;;2.65;0.50;;;;;;;19.61;100.00;99711.31;1451003;83;975655;-53
2022/06/01 22:45:56;;;;;;;2.83;0.60;;;;;;;19.61;100.00;99711.31;1646218;83;892944;-53
2022/06/01 22:48:25;;;;;;;1.95;0.90;;;;;;;19.46;100.00;99679.34;1682395;83;20966;-53
2022/06/01 22:57:15;;;;;;;1.47;0.60;;;;;;;19.37;100.00;99677.41;1543607;83;975383;-51
2022/06/01 23:00:41;;;;;;;1.12;0.50;;;;;;;19.37;100.00;99677.41;1499636;80;975770;-53
2022/06/01 23:03:08;;;;;;;0.60;0.60;;;;;;;19.37;100.00;99677.41;1682308;81;974775;-52
2022/06/01 23:05:35;;;;;;;0.60;0.50;;;;;;;19.08;100.00;99651.23;1735349;80;20946;-51
2022/06/01 23:08:39;;;;;;;0.80;0.50;;;;;;;19.03;100.00;99653.49;1657983;82;975354;-54
2022/06/01 23:11:07;;;;;;;0.50;0.40;;;;;;;19.03;100.00;99653.49;1728190;80;976640;-53
2022/06/01 23:13:34;;;;;;;1.80;0.40;;;;;;;18.97;100.00;99646.34;1741376;80;21046;-53
2022/06/01 23:16:01;;;;;;;0.53;0.50;;;;;;;18.97;100.00;99644.97;1739401;80;21043;-54